sensor_id;sensor_type;location;lat;lon;timestamp;P1;durP1;ratioP1;P2;durP2;ratioP2
24064;SDS011;12258;50.940;5.330;2022-09-14T00:00:12;4.68;;;2.28;;
24064;SDS011;12258;50.940;5.330;2022-09-14T00:02:38;8.70;;;1.83;;
24064;SDS011;12258;50.940;5.330;2022-09-14T00:05:03;6.38;;;2.30;;
24064;SDS011;12258;50.940;5.330;2022-09-14T00:07:29;7.53;;;1.90;;
24064;SDS011;12258;50.940;5.330;2022-09-14T00:09:55;4.45;;;1.90;;
24064;SDS011;12258;50.940;5.330;2022-09-14T00:12:20;4.95;;;1.80;;
24064;SDS011;12258;50.940;5.330;2022-09-14T00:14:45;8.88;;;1.95;;
24064;SDS011;12258;50.940;5.330;2022-09-14T00:17:11;4.57;;;1.65;;
24064;SDS011;12258;50.940;5.330;2022-09-14T00:19:37;6.75;;;2.00;;
24064;SDS011;12258;50.940;5.330;2022-09-14T00:22:02;5.75;;;2.00;;
24064;SDS011;12258;50.940;5.330;2022-09-14T00:24:28;4.55;;;1.70;;
24064;SDS011;12258;50.940;5.330;2022-09-14T00:26:55;4.65;;;2.03;;
24064;SDS011;12258;50.940;5.330;2022-09-14T00:29:20;7.22;;;2.20;;
24064;SDS011;12258;50.940;5.330;2022-09-14T00:31:47;5.43;;;2.00;;
24064;SDS011;12258;50.940;5.330;2022-09-14T00:34:14;6.95;;;2.17;;
24064;SDS011;12258;50.940;5.330;2022-09-14T00:36:41;7.43;;;2.20;;
24064;SDS011;12258;50.940;5.330;2022-09-14T00:39:09;15.80;;;2.42;;
24064;SDS011;12258;50.940;5.330;2022-09-14T00:41:36;6.30;;;2.30;;
24064;SDS011;12258;50.940;5.330;2022-09-14T00:46:29;6.50;;;2.20;;
24064;SDS011;12258;50.940;5.330;2022-09-14T00:48:58;9.23;;;3.05;;
24064;SDS011;12258;50.940;5.330;2022-09-14T00:51:25;8.13;;;2.30;;
24064;SDS011;12258;50.940;5.330;2022-09-14T00:53:53;7.30;;;2.08;;
24064;SDS011;12258;50.940;5.330;2022-09-14T00:56:19;9.45;;;2.22;;
24064;SDS011;12258;50.940;5.330;2022-09-14T00:58:47;5.63;;;2.22;;
24064;SDS011;12258;50.940;5.330;2022-09-14T01:01:15;9.15;;;2.03;;
24064;SDS011;12258;50.940;5.330;2022-09-14T01:03:41;7.72;;;1.90;;
24064;SDS011;12258;50.940;5.330;2022-09-14T01:06:18;3.42;;;1.60;;
24064;SDS011;12258;50.940;5.330;2022-09-14T01:31:31;7.63;;;1.98;;
24064;SDS011;12258;50.940;5.330;2022-09-14T01:34:05;9.52;;;2.30;;
24064;SDS011;12258;50.940;5.330;2022-09-14T01:36:35;5.10;;;1.75;;
24064;SDS011;12258;50.940;5.330;2022-09-14T01:39:04;7.97;;;1.77;;
24064;SDS011;12258;50.940;5.330;2022-09-14T01:41:31;4.72;;;1.92;;
24064;SDS011;12258;50.940;5.330;2022-09-14T01:44:01;6.80;;;2.20;;
24064;SDS011;12258;50.940;5.330;2022-09-14T01:46:47;4.47;;;1.90;;
24064;SDS011;12258;50.940;5.330;2022-09-14T01:52:04;15.00;;;1.98;;
24064;SDS011;12258;50.940;5.330;2022-09-14T01:54:38;6.35;;;2.53;;
24064;SDS011;12258;50.940;5.330;2022-09-14T02:00:03;6.95;;;4.10;;
24064;SDS011;12258;50.940;5.330;2022-09-14T02:02:33;4.32;;;2.35;;
24064;SDS011;12258;50.940;5.330;2022-09-14T02:07:43;5.25;;;3.70;;
24064;SDS011;12258;50.940;5.330;2022-09-14T02:10:10;7.47;;;3.00;;
24064;SDS011;12258;50.940;5.330;2022-09-14T02:12:38;5.30;;;2.65;;
24064;SDS011;12258;50.940;5.330;2022-09-14T02:15:04;4.20;;;2.72;;
24064;SDS011;12258;50.940;5.330;2022-09-14T02:17:33;5.80;;;2.55;;
24064;SDS011;12258;50.940;5.330;2022-09-14T02:19:59;8.18;;;3.03;;
24064;SDS011;12258;50.940;5.330;2022-09-14T02:22:28;5.70;;;2.85;;
24064;SDS011;12258;50.940;5.330;2022-09-14T02:24:54;12.98;;;2.97;;
24064;SDS011;12258;50.940;5.330;2022-09-14T02:27:21;7.07;;;3.40;;
24064;SDS011;12258;50.940;5.330;2022-09-14T02:29:47;10.30;;;4.03;;
24064;SDS011;12258;50.940;5.330;2022-09-14T02:48:46;12.07;;;4.68;;
24064;SDS011;12258;50.940;5.330;2022-09-14T02:57:26;7.30;;;3.42;;
24064;SDS011;12258;50.940;5.330;2022-09-14T02:59:54;6.85;;;3.90;;
24064;SDS011;12258;50.940;5.330;2022-09-14T03:02:20;13.50;;;4.45;;
24064;SDS011;12258;50.940;5.330;2022-09-14T03:04:46;10.57;;;4.45;;
24064;SDS011;12258;50.940;5.330;2022-09-14T03:07:12;11.68;;;4.55;;
24064;SDS011;12258;50.940;5.330;2022-09-14T03:09:37;14.43;;;4.53;;
24064;SDS011;12258;50.940;5.330;2022-09-14T03:12:02;13.40;;;5.20;;
24064;SDS011;12258;50.940;5.330;2022-09-14T03:14:28;9.68;;;4.63;;
24064;SDS011;12258;50.940;5.330;2022-09-14T03:16:54;11.65;;;5.30;;
24064;SDS011;12258;50.940;5.330;2022-09-14T03:19:20;10.45;;;4.93;;
24064;SDS011;12258;50.940;5.330;2022-09-14T03:21:45;8.45;;;5.05;;
24064;SDS011;12258;50.940;5.330;2022-09-14T03:24:11;8.10;;;5.00;;
24064;SDS011;12258;50.940;5.330;2022-09-14T03:26:37;10.48;;;4.88;;
24064;SDS011;12258;50.940;5.330;2022-09-14T03:29:03;8.63;;;4.80;;
24064;SDS011;12258;50.940;5.330;2022-09-14T03:31:31;12.43;;;5.78;;
24064;SDS011;12258;50.940;5.330;2022-09-14T03:33:58;13.73;;;5.57;;
24064;SDS011;12258;50.940;5.330;2022-09-14T03:36:25;7.70;;;5.28;;
24064;SDS011;12258;50.940;5.330;2022-09-14T03:38:53;14.27;;;6.72;;
24064;SDS011;12258;50.940;5.330;2022-09-14T03:41:20;11.77;;;5.70;;
24064;SDS011;12258;50.940;5.330;2022-09-14T03:43:47;12.25;;;5.57;;
24064;SDS011;12258;50.940;5.330;2022-09-14T03:46:14;12.80;;;6.00;;
24064;SDS011;12258;50.940;5.330;2022-09-14T03:48:41;12.27;;;6.07;;
24064;SDS011;12258;50.940;5.330;2022-09-14T03:51:09;12.85;;;6.90;;
24064;SDS011;12258;50.940;5.330;2022-09-14T03:53:35;12.73;;;7.05;;
24064;SDS011;12258;50.940;5.330;2022-09-14T03:56:11;8.10;;;5.10;;
24064;SDS011;12258;50.940;5.330;2022-09-14T03:58:39;10.23;;;5.82;;
24064;SDS011;12258;50.940;5.330;2022-09-14T04:01:06;13.00;;;7.78;;
24064;SDS011;12258;50.940;5.330;2022-09-14T04:03:34;10.93;;;6.10;;
24064;SDS011;12258;50.940;5.330;2022-09-14T04:06:00;12.63;;;7.30;;
24064;SDS011;12258;50.940;5.330;2022-09-14T04:08:29;13.43;;;7.45;;
24064;SDS011;12258;50.940;5.330;2022-09-14T04:10:59;10.38;;;6.65;;
24064;SDS011;12258;50.940;5.330;2022-09-14T04:13:25;10.02;;;6.47;;
24064;SDS011;12258;50.940;5.330;2022-09-14T04:16:00;8.77;;;5.72;;
24064;SDS011;12258;50.940;5.330;2022-09-14T04:18:26;17.00;;;8.23;;
24064;SDS011;12258;50.940;5.330;2022-09-14T04:20:58;10.82;;;8.35;;
24064;SDS011;12258;50.940;5.330;2022-09-14T04:23:25;16.50;;;6.85;;
24064;SDS011;12258;50.940;5.330;2022-09-14T04:25:51;12.10;;;6.57;;
24064;SDS011;12258;50.940;5.330;2022-09-14T04:28:18;15.20;;;8.70;;
24064;SDS011;12258;50.940;5.330;2022-09-14T04:30:43;12.98;;;7.50;;
24064;SDS011;12258;50.940;5.330;2022-09-14T04:33:17;14.38;;;9.10;;
24064;SDS011;12258;50.940;5.330;2022-09-14T04:35:43;18.15;;;6.53;;
24064;SDS011;12258;50.940;5.330;2022-09-14T04:38:08;16.63;;;10.73;;
24064;SDS011;12258;50.940;5.330;2022-09-14T04:40:34;13.90;;;9.45;;
24064;SDS011;12258;50.940;5.330;2022-09-14T04:42:59;18.60;;;10.25;;
24064;SDS011;12258;50.940;5.330;2022-09-14T04:45:24;12.15;;;7.68;;
24064;SDS011;12258;50.940;5.330;2022-09-14T04:47:50;16.52;;;10.48;;
24064;SDS011;12258;50.940;5.330;2022-09-14T04:50:17;12.13;;;9.15;;
24064;SDS011;12258;50.940;5.330;2022-09-14T04:52:43;20.90;;;10.23;;
24064;SDS011;12258;50.940;5.330;2022-09-14T04:55:08;15.60;;;9.02;;
24064;SDS011;12258;50.940;5.330;2022-09-14T04:57:34;12.07;;;6.88;;
24064;SDS011;12258;50.940;5.330;2022-09-14T05:00:00;10.43;;;7.88;;
24064;SDS011;12258;50.940;5.330;2022-09-14T05:02:26;11.50;;;8.75;;
24064;SDS011;12258;50.940;5.330;2022-09-14T05:04:54;16.35;;;11.15;;
24064;SDS011;12258;50.940;5.330;2022-09-14T05:07:20;17.33;;;9.82;;
24064;SDS011;12258;50.940;5.330;2022-09-14T05:09:46;16.15;;;9.10;;
24064;SDS011;12258;50.940;5.330;2022-09-14T05:12:11;16.08;;;10.95;;
24064;SDS011;12258;50.940;5.330;2022-09-14T05:14:36;11.77;;;8.35;;
24064;SDS011;12258;50.940;5.330;2022-09-14T05:17:02;13.57;;;10.05;;
24064;SDS011;12258;50.940;5.330;2022-09-14T05:19:28;11.73;;;8.88;;
24064;SDS011;12258;50.940;5.330;2022-09-14T05:21:53;16.98;;;9.88;;
24064;SDS011;12258;50.940;5.330;2022-09-14T05:24:19;14.73;;;10.27;;
24064;SDS011;12258;50.940;5.330;2022-09-14T05:26:45;15.02;;;9.27;;
24064;SDS011;12258;50.940;5.330;2022-09-14T05:29:12;18.08;;;12.02;;
24064;SDS011;12258;50.940;5.330;2022-09-14T05:31:39;13.40;;;8.80;;
24064;SDS011;12258;50.940;5.330;2022-09-14T05:34:05;12.75;;;9.57;;
24064;SDS011;12258;50.940;5.330;2022-09-14T05:36:30;23.58;;;12.70;;
24064;SDS011;12258;50.940;5.330;2022-09-14T05:38:56;10.57;;;9.48;;
24064;SDS011;12258;50.940;5.330;2022-09-14T05:41:21;14.65;;;11.70;;
24064;SDS011;12258;50.940;5.330;2022-09-14T05:43:47;25.35;;;10.43;;
24064;SDS011;12258;50.940;5.330;2022-09-14T05:46:14;19.52;;;10.38;;
24064;SDS011;12258;50.940;5.330;2022-09-14T05:48:41;18.77;;;13.02;;
24064;SDS011;12258;50.940;5.330;2022-09-14T05:51:11;13.05;;;10.85;;
24064;SDS011;12258;50.940;5.330;2022-09-14T05:53:39;13.80;;;10.63;;
24064;SDS011;12258;50.940;5.330;2022-09-14T05:56:06;13.93;;;10.43;;
24064;SDS011;12258;50.940;5.330;2022-09-14T05:58:34;19.65;;;10.60;;
24064;SDS011;12258;50.940;5.330;2022-09-14T06:01:13;12.18;;;9.38;;
24064;SDS011;12258;50.940;5.330;2022-09-14T06:03:41;22.30;;;12.43;;
24064;SDS011;12258;50.940;5.330;2022-09-14T06:06:08;23.67;;;11.20;;
24064;SDS011;12258;50.940;5.330;2022-09-14T06:08:36;17.85;;;11.80;;
24064;SDS011;12258;50.940;5.330;2022-09-14T06:11:02;21.02;;;10.20;;
24064;SDS011;12258;50.940;5.330;2022-09-14T06:13:31;16.67;;;12.27;;
24064;SDS011;12258;50.940;5.330;2022-09-14T06:16:07;16.08;;;12.10;;
24064;SDS011;12258;50.940;5.330;2022-09-14T06:18:36;17.88;;;9.95;;
24064;SDS011;12258;50.940;5.330;2022-09-14T06:21:02;16.60;;;10.13;;
24064;SDS011;12258;50.940;5.330;2022-09-14T06:23:29;20.30;;;12.05;;
24064;SDS011;12258;50.940;5.330;2022-09-14T06:25:56;19.17;;;10.68;;
24064;SDS011;12258;50.940;5.330;2022-09-14T06:28:24;16.65;;;10.13;;
24064;SDS011;12258;50.940;5.330;2022-09-14T06:30:50;14.90;;;9.00;;
24064;SDS011;12258;50.940;5.330;2022-09-14T06:33:16;12.05;;;9.20;;
24064;SDS011;12258;50.940;5.330;2022-09-14T06:35:42;15.13;;;10.68;;
24064;SDS011;12258;50.940;5.330;2022-09-14T06:38:10;14.27;;;10.95;;
24064;SDS011;12258;50.940;5.330;2022-09-14T06:40:36;14.02;;;10.27;;
24064;SDS011;12258;50.940;5.330;2022-09-14T06:43:02;16.92;;;10.82;;
24064;SDS011;12258;50.940;5.330;2022-09-14T06:45:28;12.77;;;8.93;;
24064;SDS011;12258;50.940;5.330;2022-09-14T06:47:55;13.18;;;10.77;;
24064;SDS011;12258;50.940;5.330;2022-09-14T06:50:21;14.68;;;9.77;;
24064;SDS011;12258;50.940;5.330;2022-09-14T06:52:47;13.43;;;10.35;;
24064;SDS011;12258;50.940;5.330;2022-09-14T06:55:13;15.27;;;10.15;;
24064;SDS011;12258;50.940;5.330;2022-09-14T06:57:38;10.48;;;8.10;;
24064;SDS011;12258;50.940;5.330;2022-09-14T07:00:04;9.73;;;6.65;;
24064;SDS011;12258;50.940;5.330;2022-09-14T07:02:30;12.00;;;9.00;;
24064;SDS011;12258;50.940;5.330;2022-09-14T07:04:55;11.30;;;10.10;;
24064;SDS011;12258;50.940;5.330;2022-09-14T07:07:21;8.23;;;7.32;;
24064;SDS011;12258;50.940;5.330;2022-09-14T07:09:47;9.60;;;8.13;;
24064;SDS011;12258;50.940;5.330;2022-09-14T07:12:13;11.50;;;8.13;;
24064;SDS011;12258;50.940;5.330;2022-09-14T07:14:38;9.10;;;6.88;;
24064;SDS011;12258;50.940;5.330;2022-09-14T07:17:04;9.10;;;7.50;;
24064;SDS011;12258;50.940;5.330;2022-09-14T07:19:30;10.55;;;8.35;;
24064;SDS011;12258;50.940;5.330;2022-09-14T07:21:56;7.93;;;6.50;;
24064;SDS011;12258;50.940;5.330;2022-09-14T07:24:21;6.82;;;5.93;;
24064;SDS011;12258;50.940;5.330;2022-09-14T07:26:47;9.05;;;6.95;;
24064;SDS011;12258;50.940;5.330;2022-09-14T07:29:14;6.97;;;5.57;;
24064;SDS011;12258;50.940;5.330;2022-09-14T07:31:49;6.88;;;6.28;;
24064;SDS011;12258;50.940;5.330;2022-09-14T07:34:17;6.75;;;4.97;;
24064;SDS011;12258;50.940;5.330;2022-09-14T07:36:43;5.80;;;4.82;;
24064;SDS011;12258;50.940;5.330;2022-09-14T07:39:11;8.02;;;6.00;;
24064;SDS011;12258;50.940;5.330;2022-09-14T07:41:38;6.22;;;5.45;;
24064;SDS011;12258;50.940;5.330;2022-09-14T07:44:05;8.48;;;4.75;;
24064;SDS011;12258;50.940;5.330;2022-09-14T07:46:35;5.78;;;5.20;;
24064;SDS011;12258;50.940;5.330;2022-09-14T07:49:05;8.47;;;5.20;;
24064;SDS011;12258;50.940;5.330;2022-09-14T07:51:33;5.07;;;4.68;;
24064;SDS011;12258;50.940;5.330;2022-09-14T07:54:00;4.63;;;4.22;;
24064;SDS011;12258;50.940;5.330;2022-09-14T07:56:26;7.53;;;4.80;;
24064;SDS011;12258;50.940;5.330;2022-09-14T07:58:53;7.35;;;4.85;;
24064;SDS011;12258;50.940;5.330;2022-09-14T08:01:21;5.03;;;4.57;;
24064;SDS011;12258;50.940;5.330;2022-09-14T08:03:47;7.13;;;4.57;;
24064;SDS011;12258;50.940;5.330;2022-09-14T08:06:19;5.15;;;3.90;;
24064;SDS011;12258;50.940;5.330;2022-09-14T08:08:47;5.38;;;3.90;;
24064;SDS011;12258;50.940;5.330;2022-09-14T08:11:21;4.53;;;4.13;;
24064;SDS011;12258;50.940;5.330;2022-09-14T08:13:53;7.53;;;4.10;;
24064;SDS011;12258;50.940;5.330;2022-09-14T08:16:28;6.68;;;3.78;;
24064;SDS011;12258;50.940;5.330;2022-09-14T08:18:59;5.05;;;4.57;;
24064;SDS011;12258;50.940;5.330;2022-09-14T08:21:27;4.50;;;3.38;;
24064;SDS011;12258;50.940;5.330;2022-09-14T08:23:54;5.32;;;4.13;;
24064;SDS011;12258;50.940;5.330;2022-09-14T08:26:22;7.00;;;4.55;;
24064;SDS011;12258;50.940;5.330;2022-09-14T08:28:50;4.70;;;3.88;;
24064;SDS011;12258;50.940;5.330;2022-09-14T08:31:20;5.47;;;3.90;;
24064;SDS011;12258;50.940;5.330;2022-09-14T08:33:51;5.30;;;4.10;;
24064;SDS011;12258;50.940;5.330;2022-09-14T08:36:23;6.10;;;4.65;;
24064;SDS011;12258;50.940;5.330;2022-09-14T08:38:49;5.00;;;4.55;;
24064;SDS011;12258;50.940;5.330;2022-09-14T08:46:40;9.25;;;4.85;;
24064;SDS011;12258;50.940;5.330;2022-09-14T08:52:10;6.32;;;5.72;;
24064;SDS011;12258;50.940;5.330;2022-09-14T08:54:38;6.65;;;5.38;;
24064;SDS011;12258;50.940;5.330;2022-09-14T08:57:08;6.43;;;5.40;;
24064;SDS011;12258;50.940;5.330;2022-09-14T08:59:44;7.43;;;6.82;;
24064;SDS011;12258;50.940;5.330;2022-09-14T09:10:28;8.60;;;7.70;;
24064;SDS011;12258;50.940;5.330;2022-09-14T09:12:57;9.50;;;7.85;;
24064;SDS011;12258;50.940;5.330;2022-09-14T09:17:56;9.95;;;8.25;;
24064;SDS011;12258;50.940;5.330;2022-09-14T09:20:30;12.10;;;10.18;;
24064;SDS011;12258;50.940;5.330;2022-09-14T09:23:20;12.20;;;9.13;;
24064;SDS011;12258;50.940;5.330;2022-09-14T09:25:49;12.65;;;10.27;;
24064;SDS011;12258;50.940;5.330;2022-09-14T09:28:22;11.05;;;8.57;;
24064;SDS011;12258;50.940;5.330;2022-09-14T09:30:51;11.13;;;9.80;;
24064;SDS011;12258;50.940;5.330;2022-09-14T09:33:21;10.70;;;9.63;;
24064;SDS011;12258;50.940;5.330;2022-09-14T09:35:50;12.90;;;10.20;;
24064;SDS011;12258;50.940;5.330;2022-09-14T09:38:17;10.82;;;9.57;;
24064;SDS011;12258;50.940;5.330;2022-09-14T09:40:50;14.23;;;11.82;;
24064;SDS011;12258;50.940;5.330;2022-09-14T09:43:18;13.95;;;10.73;;
24064;SDS011;12258;50.940;5.330;2022-09-14T09:48:13;12.32;;;11.05;;
24064;SDS011;12258;50.940;5.330;2022-09-14T09:51:14;12.65;;;11.20;;
24064;SDS011;12258;50.940;5.330;2022-09-14T09:53:36;13.70;;;11.40;;
24064;SDS011;12258;50.940;5.330;2022-09-14T09:56:15;18.48;;;12.38;;
24064;SDS011;12258;50.940;5.330;2022-09-14T09:58:52;12.70;;;10.70;;
24064;SDS011;12258;50.940;5.330;2022-09-14T10:01:19;14.77;;;11.80;;
24064;SDS011;12258;50.940;5.330;2022-09-14T10:04:20;12.93;;;11.55;;
24064;SDS011;12258;50.940;5.330;2022-09-14T10:06:54;15.90;;;11.05;;
24064;SDS011;12258;50.940;5.330;2022-09-14T10:09:22;16.42;;;10.73;;
24064;SDS011;12258;50.940;5.330;2022-09-14T10:11:57;19.20;;;11.95;;
24064;SDS011;12258;50.940;5.330;2022-09-14T10:14:35;13.65;;;10.02;;
24064;SDS011;12258;50.940;5.330;2022-09-14T10:19:30;13.35;;;10.23;;
24064;SDS011;12258;50.940;5.330;2022-09-14T10:22:31;14.02;;;10.63;;
24064;SDS011;12258;50.940;5.330;2022-09-14T10:27:48;11.50;;;10.40;;
24064;SDS011;12258;50.940;5.330;2022-09-14T10:30:21;12.52;;;11.23;;
24064;SDS011;12258;50.940;5.330;2022-09-14T10:46:42;11.50;;;10.30;;
24064;SDS011;12258;50.940;5.330;2022-09-14T10:54:37;11.32;;;9.70;;
24064;SDS011;12258;50.940;5.330;2022-09-14T11:00:26;12.02;;;9.00;;
24064;SDS011;12258;50.940;5.330;2022-09-14T11:05:20;10.43;;;8.75;;
24064;SDS011;12258;50.940;5.330;2022-09-14T11:25:13;12.57;;;9.85;;
24064;SDS011;12258;50.940;5.330;2022-09-14T11:27:44;10.48;;;9.23;;
24064;SDS011;12258;50.940;5.330;2022-09-14T11:30:19;10.95;;;9.63;;
24064;SDS011;12258;50.940;5.330;2022-09-14T11:33:06;12.88;;;8.52;;
24064;SDS011;12258;50.940;5.330;2022-09-14T11:35:56;13.57;;;9.67;;
24064;SDS011;12258;50.940;5.330;2022-09-14T11:38:29;10.75;;;9.00;;
24064;SDS011;12258;50.940;5.330;2022-09-14T11:41:06;11.60;;;8.45;;
24064;SDS011;12258;50.940;5.330;2022-09-14T11:43:57;9.93;;;8.93;;
24064;SDS011;12258;50.940;5.330;2022-09-14T11:46:38;13.98;;;9.05;;
24064;SDS011;12258;50.940;5.330;2022-09-14T11:49:16;9.75;;;8.70;;
24064;SDS011;12258;50.940;5.330;2022-09-14T11:51:48;10.35;;;9.20;;
24064;SDS011;12258;50.940;5.330;2022-09-14T11:54:18;9.63;;;8.63;;
24064;SDS011;12258;50.940;5.330;2022-09-14T11:56:47;11.45;;;8.52;;
24064;SDS011;12258;50.940;5.330;2022-09-14T12:15:29;8.15;;;5.90;;
24064;SDS011;12258;50.940;5.330;2022-09-14T12:20:35;7.63;;;5.30;;
24064;SDS011;12258;50.940;5.330;2022-09-14T12:25:36;3.70;;;3.33;;
24064;SDS011;12258;50.940;5.330;2022-09-14T12:28:19;9.23;;;3.95;;
24064;SDS011;12258;50.940;5.330;2022-09-14T12:31:27;4.18;;;3.55;;
24064;SDS011;12258;50.940;5.330;2022-09-14T12:34:04;4.65;;;3.78;;
24064;SDS011;12258;50.940;5.330;2022-09-14T12:39:04;6.50;;;2.95;;
24064;SDS011;12258;50.940;5.330;2022-09-14T12:49:53;2.40;;;2.15;;
24064;SDS011;12258;50.940;5.330;2022-09-14T12:52:31;2.95;;;1.70;;
24064;SDS011;12258;50.940;5.330;2022-09-14T12:55:20;6.53;;;2.60;;
24064;SDS011;12258;50.940;5.330;2022-09-14T12:58:39;1.83;;;1.73;;
24064;SDS011;12258;50.940;5.330;2022-09-14T13:01:01;4.95;;;1.63;;
24064;SDS011;12258;50.940;5.330;2022-09-14T13:06:11;5.20;;;2.20;;
24064;SDS011;12258;50.940;5.330;2022-09-14T13:08:45;7.07;;;2.60;;
24064;SDS011;12258;50.940;5.330;2022-09-14T13:11:19;4.38;;;2.67;;
24064;SDS011;12258;50.940;5.330;2022-09-14T13:13:48;4.60;;;2.40;;
24064;SDS011;12258;50.940;5.330;2022-09-14T13:16:18;3.53;;;1.80;;
24064;SDS011;12258;50.940;5.330;2022-09-14T13:18:58;6.05;;;2.53;;
24064;SDS011;12258;50.940;5.330;2022-09-14T13:21:25;2.22;;;2.00;;
24064;SDS011;12258;50.940;5.330;2022-09-14T13:23:52;3.28;;;2.50;;
24064;SDS011;12258;50.940;5.330;2022-09-14T13:26:18;5.00;;;2.33;;
24064;SDS011;12258;50.940;5.330;2022-09-14T13:28:46;3.20;;;2.42;;
24064;SDS011;12258;50.940;5.330;2022-09-14T13:31:33;3.55;;;2.80;;
24064;SDS011;12258;50.940;5.330;2022-09-14T13:34:01;4.10;;;2.50;;
24064;SDS011;12258;50.940;5.330;2022-09-14T13:36:29;3.13;;;2.83;;
24064;SDS011;12258;50.940;5.330;2022-09-14T13:38:58;3.50;;;2.72;;
24064;SDS011;12258;50.940;5.330;2022-09-14T13:41:28;4.93;;;2.85;;
24064;SDS011;12258;50.940;5.330;2022-09-14T13:43:55;5.55;;;2.90;;
24064;SDS011;12258;50.940;5.330;2022-09-14T13:46:22;6.25;;;3.50;;
24064;SDS011;12258;50.940;5.330;2022-09-14T13:48:49;3.53;;;3.22;;
24064;SDS011;12258;50.940;5.330;2022-09-14T13:51:23;3.20;;;2.95;;
24064;SDS011;12258;50.940;5.330;2022-09-14T13:53:53;5.60;;;3.30;;
24064;SDS011;12258;50.940;5.330;2022-09-14T14:01:51;4.10;;;3.70;;
24064;SDS011;12258;50.940;5.330;2022-09-14T14:04:27;5.60;;;3.47;;
24064;SDS011;12258;50.940;5.330;2022-09-14T14:09:47;4.95;;;4.13;;
24064;SDS011;12258;50.940;5.330;2022-09-14T14:19:53;5.57;;;3.65;;
24064;SDS011;12258;50.940;5.330;2022-09-14T14:22:31;6.88;;;4.60;;
24064;SDS011;12258;50.940;5.330;2022-09-14T14:24:58;8.60;;;6.95;;
24064;SDS011;12258;50.940;5.330;2022-09-14T14:27:26;7.88;;;6.07;;
24064;SDS011;12258;50.940;5.330;2022-09-14T14:29:54;6.03;;;4.78;;
24064;SDS011;12258;50.940;5.330;2022-09-14T14:32:20;5.90;;;4.60;;
24064;SDS011;12258;50.940;5.330;2022-09-14T14:34:46;5.35;;;4.82;;
24064;SDS011;12258;50.940;5.330;2022-09-14T14:37:12;8.52;;;5.22;;
24064;SDS011;12258;50.940;5.330;2022-09-14T14:39:38;4.82;;;4.40;;
24064;SDS011;12258;50.940;5.330;2022-09-14T14:42:04;5.20;;;4.80;;
24064;SDS011;12258;50.940;5.330;2022-09-14T14:44:31;5.97;;;4.55;;
24064;SDS011;12258;50.940;5.330;2022-09-14T14:46:58;10.30;;;5.28;;
24064;SDS011;12258;50.940;5.330;2022-09-14T14:49:24;5.95;;;4.72;;
24064;SDS011;12258;50.940;5.330;2022-09-14T14:51:50;5.90;;;4.60;;
24064;SDS011;12258;50.940;5.330;2022-09-14T14:54:19;8.82;;;5.53;;
24064;SDS011;12258;50.940;5.330;2022-09-14T14:56:45;8.00;;;4.47;;
24064;SDS011;12258;50.940;5.330;2022-09-14T14:59:22;6.28;;;5.68;;
24064;SDS011;12258;50.940;5.330;2022-09-14T15:01:51;5.55;;;4.40;;
24064;SDS011;12258;50.940;5.330;2022-09-14T15:04:17;7.28;;;5.45;;
24064;SDS011;12258;50.940;5.330;2022-09-14T15:06:44;7.45;;;5.30;;
24064;SDS011;12258;50.940;5.330;2022-09-14T15:09:26;7.82;;;5.85;;
24064;SDS011;12258;50.940;5.330;2022-09-14T15:11:56;8.00;;;6.07;;
24064;SDS011;12258;50.940;5.330;2022-09-14T15:14:23;7.20;;;5.80;;
24064;SDS011;12258;50.940;5.330;2022-09-14T15:16:49;7.28;;;6.57;;
24064;SDS011;12258;50.940;5.330;2022-09-14T15:19:16;8.20;;;6.65;;
24064;SDS011;12258;50.940;5.330;2022-09-14T15:21:42;9.07;;;7.57;;
24064;SDS011;12258;50.940;5.330;2022-09-14T15:24:08;9.13;;;8.23;;
24064;SDS011;12258;50.940;5.330;2022-09-14T15:26:34;8.82;;;7.60;;
24064;SDS011;12258;50.940;5.330;2022-09-14T15:29:01;9.18;;;7.25;;
24064;SDS011;12258;50.940;5.330;2022-09-14T15:31:27;9.80;;;8.60;;
24064;SDS011;12258;50.940;5.330;2022-09-14T15:33:53;9.43;;;7.68;;
24064;SDS011;12258;50.940;5.330;2022-09-14T15:39:07;13.60;;;9.27;;
24064;SDS011;12258;50.940;5.330;2022-09-14T15:41:36;11.15;;;10.00;;
24064;SDS011;12258;50.940;5.330;2022-09-14T15:44:02;12.25;;;9.80;;
24064;SDS011;12258;50.940;5.330;2022-09-14T15:46:28;9.23;;;8.18;;
24064;SDS011;12258;50.940;5.330;2022-09-14T15:48:55;10.40;;;8.50;;
24064;SDS011;12258;50.940;5.330;2022-09-14T15:51:21;12.10;;;10.48;;
24064;SDS011;12258;50.940;5.330;2022-09-14T15:53:46;11.05;;;9.30;;
24064;SDS011;12258;50.940;5.330;2022-09-14T15:56:13;11.80;;;7.57;;
24064;SDS011;12258;50.940;5.330;2022-09-14T15:58:40;11.35;;;8.90;;
24064;SDS011;12258;50.940;5.330;2022-09-14T16:01:15;9.70;;;8.60;;
24064;SDS011;12258;50.940;5.330;2022-09-14T16:03:42;12.40;;;9.85;;
24064;SDS011;12258;50.940;5.330;2022-09-14T16:06:08;9.27;;;8.43;;
24064;SDS011;12258;50.940;5.330;2022-09-14T16:08:36;14.30;;;8.60;;
24064;SDS011;12258;50.940;5.330;2022-09-14T16:11:02;13.40;;;9.23;;
24064;SDS011;12258;50.940;5.330;2022-09-14T16:13:28;11.27;;;9.20;;
24064;SDS011;12258;50.940;5.330;2022-09-14T16:18:50;12.38;;;9.30;;
24064;SDS011;12258;50.940;5.330;2022-09-14T16:21:16;14.60;;;9.63;;
24064;SDS011;12258;50.940;5.330;2022-09-14T16:23:48;12.48;;;9.48;;
24064;SDS011;12258;50.940;5.330;2022-09-14T16:26:18;11.40;;;8.35;;
24064;SDS011;12258;50.940;5.330;2022-09-14T16:28:46;11.95;;;8.25;;
24064;SDS011;12258;50.940;5.330;2022-09-14T16:31:15;7.78;;;6.85;;
24064;SDS011;12258;50.940;5.330;2022-09-14T16:33:44;8.95;;;8.10;;
24064;SDS011;12258;50.940;5.330;2022-09-14T16:36:15;11.85;;;7.90;;
24064;SDS011;12258;50.940;5.330;2022-09-14T16:38:42;11.27;;;7.15;;
24064;SDS011;12258;50.940;5.330;2022-09-14T16:41:08;11.25;;;7.85;;
24064;SDS011;12258;50.940;5.330;2022-09-14T16:43:34;12.02;;;7.93;;
24064;SDS011;12258;50.940;5.330;2022-09-14T16:48:30;7.80;;;6.90;;
24064;SDS011;12258;50.940;5.330;2022-09-14T16:50:57;9.07;;;8.18;;
24064;SDS011;12258;50.940;5.330;2022-09-14T16:53:23;8.20;;;7.32;;
24064;SDS011;12258;50.940;5.330;2022-09-14T16:55:49;12.82;;;10.43;;
24064;SDS011;12258;50.940;5.330;2022-09-14T16:58:15;12.27;;;8.90;;
24064;SDS011;12258;50.940;5.330;2022-09-14T17:00:41;13.43;;;10.93;;
24064;SDS011;12258;50.940;5.330;2022-09-14T17:03:06;15.52;;;11.57;;
24064;SDS011;12258;50.940;5.330;2022-09-14T17:05:32;10.07;;;8.63;;
24064;SDS011;12258;50.940;5.330;2022-09-14T17:07:58;13.38;;;10.07;;
24064;SDS011;12258;50.940;5.330;2022-09-14T17:10:23;15.10;;;9.38;;
24064;SDS011;12258;50.940;5.330;2022-09-14T17:12:48;9.15;;;7.30;;
24064;SDS011;12258;50.940;5.330;2022-09-14T17:15:14;9.30;;;7.32;;
24064;SDS011;12258;50.940;5.330;2022-09-14T17:17:39;7.55;;;5.72;;
24064;SDS011;12258;50.940;5.330;2022-09-14T17:20:05;7.18;;;5.85;;
24064;SDS011;12258;50.940;5.330;2022-09-14T17:22:31;10.55;;;6.28;;
24064;SDS011;12258;50.940;5.330;2022-09-14T17:24:57;8.80;;;5.30;;
24064;SDS011;12258;50.940;5.330;2022-09-14T17:27:23;8.30;;;5.07;;
24064;SDS011;12258;50.940;5.330;2022-09-14T17:29:49;9.02;;;5.05;;
24064;SDS011;12258;50.940;5.330;2022-09-14T17:32:16;10.07;;;5.13;;
24064;SDS011;12258;50.940;5.330;2022-09-14T17:34:42;8.90;;;5.65;;
24064;SDS011;12258;50.940;5.330;2022-09-14T17:37:07;8.52;;;5.47;;
24064;SDS011;12258;50.940;5.330;2022-09-14T17:39:33;9.25;;;5.25;;
24064;SDS011;12258;50.940;5.330;2022-09-14T17:41:59;11.48;;;6.88;;
24064;SDS011;12258;50.940;5.330;2022-09-14T17:44:24;8.52;;;5.50;;
24064;SDS011;12258;50.940;5.330;2022-09-14T17:46:52;12.85;;;6.82;;
24064;SDS011;12258;50.940;5.330;2022-09-14T17:49:18;13.23;;;7.35;;
24064;SDS011;12258;50.940;5.330;2022-09-14T17:51:46;8.57;;;7.20;;